createdAt,value
2023-03-20T00:01:18.272Z,16.33
2023-03-20T00:03:45.524Z,15.73
2023-03-20T00:06:31.333Z,16.00
2023-03-20T00:08:59.031Z,17.07
2023-03-20T00:11:36.250Z,16.53
2023-03-20T00:14:06.126Z,16.40
2023-03-20T00:16:34.799Z,17.77
2023-03-20T00:19:03.224Z,16.83
2023-03-20T00:21:31.495Z,17.77
2023-03-20T00:24:01.437Z,16.30
2023-03-20T00:26:35.122Z,16.87
2023-03-20T00:29:04.248Z,17.73
2023-03-20T00:31:39.155Z,16.97
2023-03-20T00:34:08.224Z,17.13
2023-03-20T00:36:35.710Z,16.87
2023-03-20T00:39:03.092Z,17.43
2023-03-20T00:41:39.559Z,16.97
2023-03-20T00:44:19.730Z,16.80
2023-03-20T00:46:48.357Z,16.27
2023-03-20T00:49:16.164Z,16.57
2023-03-20T00:51:44.541Z,16.00
2023-03-20T00:54:16.024Z,17.17
2023-03-20T00:56:50.047Z,17.00
2023-03-20T00:59:19.426Z,16.73
2023-03-20T01:01:47.014Z,17.13
2023-03-20T01:04:16.205Z,16.93
2023-03-20T01:06:43.707Z,17.73
2023-03-20T01:09:11.275Z,17.77
2023-03-20T01:11:39.294Z,18.20
2023-03-20T01:14:07.082Z,16.53
2023-03-20T01:16:34.354Z,17.67
2023-03-20T01:19:01.674Z,18.10
2023-03-20T01:21:29.403Z,18.03
2023-03-20T01:23:56.646Z,17.70
2023-03-20T01:26:36.668Z,18.83
2023-03-20T01:29:04.989Z,19.17
2023-03-20T01:31:33.922Z,19.37
2023-03-20T01:34:01.446Z,20.03
2023-03-20T01:36:28.716Z,21.37
2023-03-20T01:38:57.375Z,20.00
2023-03-20T01:41:26.389Z,20.83
2023-03-20T01:43:53.759Z,20.87
2023-03-20T01:46:21.876Z,20.80
2023-03-20T01:48:50.526Z,20.23
2023-03-20T01:51:19.531Z,20.67
2023-03-20T01:53:48.729Z,21.97
2023-03-20T01:56:16.366Z,21.43
2023-03-20T01:58:51.416Z,21.97
2023-03-20T02:01:18.776Z,22.23
2023-03-20T02:03:49.360Z,21.30
2023-03-20T02:06:22.948Z,20.33
2023-03-20T02:09:10.594Z,23.20
2023-03-20T02:11:42.738Z,21.50
2023-03-20T02:14:10.509Z,21.83
2023-03-20T02:16:48.155Z,20.73
2023-03-20T02:19:32.423Z,20.60
2023-03-20T02:22:34.925Z,20.97
2023-03-20T02:25:21.681Z,21.93
2023-03-20T02:27:58.421Z,20.67
2023-03-20T02:30:25.729Z,21.37
2023-03-20T02:33:09.885Z,21.47
2023-03-20T02:35:56.406Z,21.90
2023-03-20T02:38:23.670Z,21.30
2023-03-20T02:41:00.378Z,20.53
2023-03-20T02:43:40.628Z,20.77
2023-03-20T02:46:08.223Z,21.57
2023-03-20T02:49:02.554Z,21.53
2023-03-20T02:51:38.346Z,20.03
2023-03-20T02:54:05.772Z,20.00
2023-03-20T02:56:34.090Z,21.67
2023-03-20T02:59:10.860Z,22.13
2023-03-20T03:01:42.258Z,21.53
2023-03-20T03:04:12.187Z,21.40
2023-03-20T03:06:41.692Z,22.60
2023-03-20T03:09:18.609Z,21.77
2023-03-20T03:11:48.930Z,22.37
2023-03-20T03:14:29.021Z,22.27
2023-03-20T03:16:57.344Z,22.80
2023-03-20T03:19:28.003Z,21.97
2023-03-20T03:21:55.537Z,22.20
2023-03-20T03:24:40.311Z,22.70
2023-03-20T03:27:24.035Z,21.97
2023-03-20T03:29:54.086Z,21.53
2023-03-20T03:32:44.521Z,23.73
2023-03-20T03:35:15.851Z,22.60
2023-03-20T03:37:46.273Z,22.97
2023-03-20T03:40:18.387Z,23.00
2023-03-20T03:43:09.010Z,23.07
2023-03-20T03:45:40.596Z,21.70
2023-03-20T03:48:10.163Z,21.60
2023-03-20T03:50:49.278Z,22.43
2023-03-20T03:53:21.179Z,22.27
2023-03-20T03:55:52.885Z,22.77
2023-03-20T03:58:24.559Z,22.67
2023-03-20T04:00:53.264Z,22.13
2023-03-20T04:03:23.801Z,22.27
2023-03-20T04:05:52.612Z,21.63
2023-03-20T04:08:20.793Z,21.03
2023-03-20T04:10:48.073Z,21.70
2023-03-20T04:13:16.409Z,19.60
2023-03-20T04:15:44.448Z,20.90
2023-03-20T04:18:16.721Z,19.90
2023-03-20T04:20:46.658Z,21.20
2023-03-20T04:23:14.391Z,19.70
2023-03-20T04:25:42.322Z,19.40
2023-03-20T04:28:11.524Z,19.80
2023-03-20T04:30:53.703Z,20.20
2023-03-20T04:33:53.224Z,19.33
2023-03-20T04:36:33.883Z,17.97
2023-03-20T04:39:02.731Z,19.07
2023-03-20T04:41:29.988Z,19.67
2023-03-20T04:43:58.447Z,20.17
2023-03-20T04:46:26.414Z,20.27
2023-03-20T04:48:53.759Z,17.93
2023-03-20T04:51:21.272Z,19.07
2023-03-20T04:53:51.038Z,18.77
2023-03-20T04:56:18.793Z,19.73
2023-03-20T04:58:48.081Z,18.27
2023-03-20T05:01:34.144Z,18.57
2023-03-20T05:04:01.580Z,18.60
2023-03-20T05:06:33.190Z,19.33
2023-03-20T05:09:01.074Z,18.67
2023-03-20T05:11:31.011Z,19.47
2023-03-20T05:14:31.117Z,18.97
2023-03-20T05:17:25.604Z,19.10
2023-03-20T05:20:28.107Z,17.57
2023-03-20T05:23:08.663Z,19.10
2023-03-20T05:25:56.037Z,18.00
2023-03-20T05:28:32.847Z,23.13
2023-03-20T05:31:17.244Z,18.90
2023-03-20T05:34:11.132Z,28.57
2023-03-20T05:36:53.623Z,18.23
2023-03-20T05:39:30.865Z,18.70
2023-03-20T05:42:16.761Z,18.10
2023-03-20T05:45:06.285Z,17.90
2023-03-20T05:47:52.190Z,16.60
2023-03-20T05:50:22.423Z,18.07
2023-03-20T05:53:00.944Z,16.30
2023-03-20T05:56:00.300Z,16.73
2023-03-20T05:58:46.089Z,15.63
2023-03-20T06:01:36.500Z,15.13
2023-03-20T06:04:10.797Z,11.63
2023-03-20T06:07:16.916Z,14.07
2023-03-20T06:09:52.817Z,14.50
2023-03-20T06:12:20.524Z,10.30
2023-03-20T06:14:47.715Z,32.47
2023-03-20T06:17:15.757Z,16.23
2023-03-20T06:19:47.681Z,6.97
2023-03-20T06:22:14.988Z,6.93
2023-03-20T06:24:43.302Z,6.47
2023-03-20T06:27:11.888Z,5.00
2023-03-20T06:29:39.414Z,5.37
2023-03-20T06:32:17.699Z,4.57
2023-03-20T06:35:06.212Z,4.20
2023-03-20T06:37:34.058Z,4.03
2023-03-20T06:40:07.591Z,3.93
2023-03-20T06:42:37.189Z,3.60
2023-03-20T06:45:06.648Z,3.87
2023-03-20T06:47:39.831Z,4.40
2023-03-20T06:50:09.044Z,4.13
2023-03-20T06:52:36.482Z,3.40
2023-03-20T06:55:20.861Z,3.67
2023-03-20T06:57:48.259Z,3.90
2023-03-20T07:00:17.996Z,4.13
2023-03-20T07:02:45.784Z,3.77
2023-03-20T07:05:15.978Z,3.53
2023-03-20T07:07:43.295Z,4.17
2023-03-20T07:10:12.375Z,3.33
2023-03-20T07:12:40.519Z,4.20
2023-03-20T07:15:08.204Z,3.80
2023-03-20T07:17:35.652Z,4.10
2023-03-20T07:20:03.103Z,3.57
2023-03-20T07:22:31.521Z,4.17
2023-03-20T07:25:41.425Z,3.83
2023-03-20T07:28:10.334Z,8.77
2023-03-20T07:30:41.290Z,28.00
2023-03-20T07:33:09.014Z,4.53
2023-03-20T07:35:36.986Z,4.30
2023-03-20T07:38:04.585Z,4.30
2023-03-20T07:40:32.511Z,4.13
2023-03-20T07:43:04.821Z,3.80
2023-03-20T07:45:52.504Z,4.23
2023-03-20T07:48:20.450Z,4.30
2023-03-20T07:50:47.779Z,4.33
2023-03-20T07:53:15.085Z,4.40
2023-03-20T07:55:42.301Z,4.60
2023-03-20T07:58:11.130Z,4.27
2023-03-20T08:00:38.618Z,4.67
2023-03-20T08:03:06.354Z,4.90
2023-03-20T08:05:34.178Z,4.60
2023-03-20T08:08:01.743Z,4.90
2023-03-20T08:10:29.217Z,5.03
2023-03-20T08:12:56.495Z,4.57
2023-03-20T08:15:23.741Z,5.57
2023-03-20T08:17:50.904Z,5.40
2023-03-20T08:20:18.256Z,5.07
2023-03-20T08:22:45.713Z,5.20
2023-03-20T08:25:13.319Z,5.10
2023-03-20T08:27:40.988Z,5.20
2023-03-20T08:30:09.562Z,4.50
2023-03-20T08:32:37.669Z,4.77
2023-03-20T08:35:05.279Z,5.27
2023-03-20T08:37:32.522Z,5.07
2023-03-20T08:39:59.946Z,5.33
2023-03-20T08:42:27.227Z,5.20
2023-03-20T08:45:13.114Z,5.27
2023-03-20T08:47:40.711Z,4.93
2023-03-20T08:50:08.571Z,6.27
2023-03-20T08:52:36.434Z,6.27
2023-03-20T08:55:03.862Z,6.50
2023-03-20T08:57:31.292Z,6.20
2023-03-20T08:59:58.562Z,5.80
2023-03-20T09:02:26.087Z,6.90
2023-03-20T09:04:53.491Z,7.30
2023-03-20T09:07:35.743Z,7.77
2023-03-20T09:10:03.373Z,7.80
2023-03-20T09:12:32.648Z,8.60
2023-03-20T09:15:01.262Z,8.03
2023-03-20T09:17:28.519Z,8.70
2023-03-20T09:19:55.711Z,8.43
2023-03-20T09:22:23.638Z,8.97
2023-03-20T09:24:50.993Z,9.20
2023-03-20T09:27:18.168Z,8.40
2023-03-20T09:29:45.503Z,10.37
2023-03-20T09:32:13.092Z,10.27
2023-03-20T09:34:40.408Z,9.57
2023-03-20T09:37:08.021Z,10.17
2023-03-20T09:39:35.456Z,9.80
2023-03-20T09:42:19.484Z,10.03
2023-03-20T09:44:52.150Z,11.07
2023-03-20T09:47:23.844Z,10.87
2023-03-20T09:50:03.318Z,11.63
2023-03-20T09:52:42.058Z,11.83
2023-03-20T09:55:15.064Z,12.97
2023-03-20T09:57:43.519Z,12.90
2023-03-20T10:00:16.743Z,12.73
2023-03-20T10:02:51.236Z,12.77
2023-03-20T10:05:28.949Z,12.67
2023-03-20T10:07:57.488Z,13.40
2023-03-20T10:10:28.453Z,15.00
2023-03-20T10:13:00.218Z,16.50
2023-03-20T10:15:46.436Z,15.97
2023-03-20T10:18:27.561Z,15.70
2023-03-20T10:21:00.540Z,15.23
2023-03-20T10:23:33.595Z,14.50
2023-03-20T10:26:07.435Z,14.63
2023-03-20T10:28:58.352Z,14.03
2023-03-20T10:31:39.140Z,13.73
2023-03-20T10:34:07.012Z,12.37
2023-03-20T10:36:41.385Z,12.80
2023-03-20T10:39:27.582Z,13.00
2023-03-20T10:41:56.877Z,12.73
2023-03-20T10:44:44.322Z,12.90
2023-03-20T10:47:13.714Z,12.37
2023-03-20T10:49:43.666Z,12.83
2023-03-20T10:52:13.931Z,13.30
2023-03-20T10:54:42.795Z,12.93
2023-03-20T10:57:23.012Z,12.87
2023-03-20T10:59:55.597Z,13.47
2023-03-20T11:02:23.818Z,14.93
2023-03-20T11:04:51.196Z,14.83
2023-03-20T11:07:18.642Z,14.93
2023-03-20T11:09:46.430Z,15.00
2023-03-20T11:12:20.931Z,14.67
2023-03-20T11:14:48.234Z,13.87
2023-03-20T11:17:17.622Z,13.90
2023-03-20T11:19:45.089Z,12.53
2023-03-20T11:22:29.453Z,11.13
2023-03-20T11:24:58.951Z,12.57
2023-03-20T11:27:27.495Z,11.00
2023-03-20T11:29:56.104Z,11.83
2023-03-20T11:32:34.593Z,11.13
2023-03-20T11:35:11.331Z,11.90
2023-03-20T11:37:43.965Z,11.43
2023-03-20T11:40:17.527Z,11.70
2023-03-20T11:43:04.084Z,11.87
2023-03-20T11:45:42.505Z,10.57
2023-03-20T11:48:19.204Z,12.73
2023-03-20T11:50:48.141Z,12.73
2023-03-20T11:53:27.819Z,12.20
2023-03-20T11:56:18.149Z,12.80
2023-03-20T11:59:03.744Z,12.00
2023-03-20T12:01:38.608Z,12.47
2023-03-20T12:04:25.035Z,12.57
2023-03-20T12:06:52.886Z,12.07
2023-03-20T12:09:40.738Z,12.07
2023-03-20T12:12:14.707Z,12.80
2023-03-20T12:14:46.771Z,12.97
2023-03-20T12:17:46.595Z,13.43
2023-03-20T12:20:32.796Z,15.00
2023-03-20T12:23:07.313Z,14.87
2023-03-20T12:25:52.653Z,13.80
2023-03-20T12:28:28.706Z,14.33
2023-03-20T12:31:02.129Z,14.20
2023-03-20T12:33:38.509Z,14.03
2023-03-20T12:36:08.837Z,15.07
2023-03-20T12:38:36.271Z,14.30
2023-03-20T12:41:18.791Z,14.13
2023-03-20T12:44:05.241Z,14.93
2023-03-20T12:46:44.030Z,14.70
2023-03-20T12:49:11.202Z,15.50
2023-03-20T12:51:56.801Z,15.10
2023-03-20T12:54:24.032Z,15.40
2023-03-20T12:57:01.053Z,14.57
2023-03-20T12:59:34.856Z,14.70
2023-03-20T13:02:17.605Z,16.33
2023-03-20T13:04:56.227Z,17.67
2023-03-20T13:07:28.970Z,14.47
2023-03-20T13:09:57.240Z,15.33
2023-03-20T13:12:33.772Z,15.50
2023-03-20T13:15:14.803Z,16.33
2023-03-20T13:17:51.503Z,15.77
2023-03-20T13:20:21.577Z,16.97
2023-03-20T13:22:59.787Z,15.10
2023-03-20T13:25:37.278Z,15.83
2023-03-20T13:28:04.613Z,16.73
2023-03-20T13:30:35.161Z,15.77
2023-03-20T13:33:08.392Z,14.87
2023-03-20T13:35:36.141Z,16.17
2023-03-20T13:38:11.290Z,15.30
2023-03-20T13:40:43.563Z,15.53
2023-03-20T13:43:24.621Z,16.03
2023-03-20T13:45:54.426Z,17.23
2023-03-20T13:48:35.034Z,16.93
2023-03-20T13:51:02.379Z,16.20
2023-03-20T13:53:33.214Z,15.67
2023-03-20T13:56:03.907Z,17.40
2023-03-20T13:58:37.579Z,17.37
2023-03-20T14:01:22.415Z,17.00
2023-03-20T14:03:50.775Z,17.23
2023-03-20T14:06:19.607Z,18.00
2023-03-20T14:09:09.916Z,16.43
2023-03-20T14:11:38.723Z,17.27
2023-03-20T14:14:13.679Z,16.47
2023-03-20T14:16:41.739Z,15.93
2023-03-20T14:19:22.379Z,17.00
2023-03-20T14:21:50.612Z,17.80
2023-03-20T14:24:19.622Z,17.27
2023-03-20T14:26:51.162Z,17.80
2023-03-20T14:29:18.834Z,18.20
2023-03-20T14:31:49.417Z,17.63
2023-03-20T14:34:18.238Z,19.30
2023-03-20T14:36:58.638Z,16.73
2023-03-20T14:39:41.232Z,17.40
2023-03-20T14:42:08.585Z,17.97
2023-03-20T14:44:56.306Z,17.87
2023-03-20T14:47:42.427Z,19.17
2023-03-20T14:50:12.843Z,19.17
2023-03-20T14:52:52.821Z,18.27
2023-03-20T14:55:20.140Z,19.13
2023-03-20T14:57:56.807Z,19.17
2023-03-20T15:00:25.832Z,18.90
2023-03-20T15:02:55.029Z,20.50
2023-03-20T15:05:35.837Z,19.83
2023-03-20T15:08:08.636Z,20.00
2023-03-20T15:10:39.735Z,20.27
2023-03-20T15:13:08.286Z,19.53
2023-03-20T15:15:35.582Z,20.33
2023-03-20T15:18:12.449Z,21.50
2023-03-20T15:20:39.957Z,21.70
2023-03-20T15:23:08.058Z,21.50
2023-03-20T15:25:46.402Z,20.80
2023-03-20T15:28:26.875Z,21.50
2023-03-20T15:30:56.920Z,21.57
2023-03-20T15:33:33.064Z,22.20
2023-03-20T15:36:08.069Z,23.57
2023-03-20T15:38:35.782Z,23.53
2023-03-20T15:41:07.719Z,24.10
2023-03-20T15:43:38.228Z,23.73
2023-03-20T15:46:18.115Z,23.13
2023-03-20T15:48:51.066Z,23.43
2023-03-20T15:51:19.660Z,24.50
2023-03-20T15:53:48.340Z,24.87
2023-03-20T15:56:19.262Z,23.70
2023-03-20T15:58:47.842Z,25.60
2023-03-20T16:01:19.975Z,23.67
2023-03-20T16:03:48.161Z,23.93
2023-03-20T16:06:18.941Z,24.00
2023-03-20T16:08:46.991Z,21.63
2023-03-20T16:11:15.583Z,22.97
2023-03-20T16:13:47.425Z,23.03
2023-03-20T16:16:23.725Z,20.77
2023-03-20T16:18:51.667Z,19.00
2023-03-20T16:21:31.264Z,18.43
2023-03-20T16:23:59.581Z,18.00
2023-03-20T16:26:27.709Z,17.10
2023-03-20T16:28:56.880Z,20.03
2023-03-20T16:31:33.469Z,19.20
2023-03-20T16:34:01.818Z,19.27
2023-03-20T16:36:30.553Z,19.87
2023-03-20T16:39:02.460Z,18.63
2023-03-20T16:41:29.740Z,19.97
2023-03-20T16:43:57.315Z,28.03
2023-03-20T16:46:43.633Z,19.70
2023-03-20T16:49:19.997Z,19.03
2023-03-20T16:51:48.202Z,20.57
2023-03-20T16:54:20.408Z,20.90
2023-03-20T16:56:52.774Z,20.63
2023-03-20T16:59:20.846Z,19.30
2023-03-20T17:01:48.828Z,17.73
2023-03-20T17:04:29.364Z,16.10
2023-03-20T17:06:59.968Z,14.10
2023-03-20T17:09:29.248Z,14.40
2023-03-20T17:12:12.174Z,14.20
2023-03-20T17:14:40.743Z,16.70
2023-03-20T17:17:19.821Z,14.73
2023-03-20T17:19:51.854Z,14.53
2023-03-20T17:22:25.719Z,14.50
2023-03-20T17:24:53.438Z,13.90
2023-03-20T17:27:21.066Z,12.50
2023-03-20T17:29:49.735Z,13.67
2023-03-20T17:32:18.597Z,13.50
2023-03-20T17:34:46.111Z,15.47
2023-03-20T17:37:14.997Z,15.77
2023-03-20T17:39:42.587Z,16.20
2023-03-20T17:42:31.765Z,15.70
2023-03-20T17:44:59.723Z,14.93
2023-03-20T17:47:46.120Z,13.47
2023-03-20T17:50:24.493Z,13.47
2023-03-20T17:52:51.951Z,13.83
2023-03-20T17:55:19.252Z,11.83
2023-03-20T17:57:46.800Z,10.57
2023-03-20T18:00:17.680Z,9.87
2023-03-20T18:02:45.198Z,9.27
2023-03-20T18:05:12.726Z,9.00
2023-03-20T18:07:40.198Z,8.77
2023-03-20T18:10:08.354Z,7.93
2023-03-20T18:12:35.825Z,7.67
2023-03-20T18:15:03.403Z,7.60
2023-03-20T18:17:30.681Z,8.57
2023-03-20T18:19:58.252Z,6.63
2023-03-20T18:22:26.116Z,7.67
2023-03-20T18:24:53.584Z,7.20
2023-03-20T18:27:21.102Z,7.50
2023-03-20T18:29:48.597Z,7.17
2023-03-20T18:32:16.363Z,7.43
2023-03-20T18:34:43.640Z,7.13
2023-03-20T18:37:14.688Z,7.60
2023-03-20T18:39:42.985Z,7.77
2023-03-20T18:42:10.369Z,6.93
2023-03-20T18:44:37.709Z,6.87
2023-03-20T18:47:05.151Z,7.17
2023-03-20T18:49:38.546Z,7.23
2023-03-20T18:52:06.953Z,7.53
2023-03-20T18:54:34.304Z,7.47
2023-03-20T18:57:03.780Z,7.50
2023-03-20T18:59:31.195Z,8.00
2023-03-20T19:01:58.515Z,8.07
2023-03-20T19:04:27.277Z,7.93
2023-03-20T19:06:54.836Z,8.07
2023-03-20T19:09:22.499Z,8.73
2023-03-20T19:11:50.260Z,8.43
2023-03-20T19:14:17.722Z,7.70
2023-03-20T19:16:45.109Z,7.47
2023-03-20T19:19:14.651Z,7.53
2023-03-20T19:21:42.224Z,7.67
2023-03-20T19:24:09.653Z,8.13
2023-03-20T19:26:37.947Z,8.00
2023-03-20T19:29:09.201Z,7.80
2023-03-20T19:31:37.272Z,7.43
2023-03-20T19:34:05.470Z,8.27
2023-03-20T19:36:35.209Z,7.97
2023-03-20T19:39:05.115Z,7.97
2023-03-20T19:41:32.591Z,8.33
2023-03-20T19:44:01.508Z,7.30
2023-03-20T19:46:39.782Z,7.67
2023-03-20T19:49:30.155Z,8.60
2023-03-20T19:51:58.526Z,9.00
2023-03-20T19:54:25.780Z,9.33
2023-03-20T19:56:53.035Z,8.30
2023-03-20T19:59:21.140Z,9.23
2023-03-20T20:01:48.887Z,8.43
2023-03-20T20:04:16.439Z,9.07
2023-03-20T20:06:47.188Z,9.57
2023-03-20T20:09:15.559Z,9.40
2023-03-20T20:11:43.983Z,9.03
2023-03-20T20:14:14.518Z,9.03
2023-03-20T20:16:43.133Z,10.73
2023-03-20T20:19:11.105Z,9.90
2023-03-20T20:24:26.658Z,37.20
2023-03-20T20:27:03.488Z,10.07
2023-03-20T20:29:42.432Z,9.90
2023-03-20T20:32:09.738Z,9.73
2023-03-20T20:38:19.635Z,10.03
2023-03-20T20:40:14.628Z,10.50
2023-03-20T20:42:43.184Z,10.37
2023-03-20T20:45:14.459Z,10.70
2023-03-20T20:47:42.798Z,13.70
2023-03-20T20:50:11.925Z,12.57
2023-03-20T20:52:41.563Z,13.53
2023-03-20T20:55:22.107Z,14.13
2023-03-20T20:57:51.463Z,13.03
2023-03-20T21:00:19.100Z,15.60
2023-03-20T21:02:46.534Z,16.07
2023-03-20T21:05:15.617Z,15.37
2023-03-20T21:07:43.579Z,16.23
2023-03-20T21:10:11.383Z,16.40
2023-03-20T21:12:55.905Z,15.33
2023-03-20T21:15:26.091Z,14.43
2023-03-20T21:18:00.397Z,15.17
2023-03-20T21:20:28.848Z,21.33
2023-03-20T21:22:56.129Z,25.00
2023-03-20T21:25:36.262Z,16.53
2023-03-20T21:28:06.732Z,15.53
2023-03-20T21:30:34.398Z,15.80
2023-03-20T21:33:01.825Z,16.60
2023-03-20T21:35:29.375Z,14.03
2023-03-20T21:40:44.777Z,15.37
2023-03-20T21:43:12.289Z,17.03
2023-03-20T21:49:31.424Z,16.37
2023-03-20T21:57:24.869Z,19.93
2023-03-20T22:00:31.874Z,17.60
2023-03-20T22:02:28.170Z,17.50
2023-03-20T22:09:10.510Z,16.03
2023-03-20T22:11:42.406Z,16.37
2023-03-20T22:17:29.005Z,14.27
2023-03-20T22:23:00.317Z,14.30
2023-03-20T22:25:46.595Z,12.70
2023-03-20T22:36:46.868Z,11.87
2023-03-20T22:39:27.107Z,11.97
2023-03-20T22:42:22.289Z,12.30
2023-03-20T22:45:01.075Z,11.47
2023-03-20T22:47:14.736Z,11.60
2023-03-20T22:49:42.174Z,11.73
2023-03-20T22:52:24.428Z,12.93
2023-03-20T22:54:58.762Z,14.03
2023-03-20T22:57:38.453Z,13.13
2023-03-20T23:00:10.478Z,12.67
2023-03-20T23:02:37.781Z,13.37
2023-03-20T23:05:05.145Z,12.37
2023-03-20T23:07:32.551Z,13.60
2023-03-20T23:09:59.836Z,13.63
2023-03-20T23:12:27.525Z,13.03
2023-03-20T23:14:55.449Z,13.40
2023-03-20T23:17:23.039Z,13.10
2023-03-20T23:19:59.219Z,14.23
2023-03-20T23:22:33.438Z,12.47
2023-03-20T23:25:11.595Z,11.57
2023-03-20T23:27:42.344Z,10.77
2023-03-20T23:30:10.304Z,11.07
2023-03-20T23:32:38.892Z,11.47
2023-03-20T23:35:06.819Z,10.97
2023-03-20T23:37:34.876Z,11.70
2023-03-20T23:40:02.262Z,10.30
2023-03-20T23:42:30.839Z,11.00
2023-03-20T23:45:04.403Z,11.80
2023-03-20T23:47:44.526Z,11.23
2023-03-20T23:50:20.730Z,11.30
2023-03-20T23:53:03.539Z,10.00
2023-03-20T23:55:35.459Z,10.73
2023-03-20T23:58:02.930Z,10.63
